sensor_id;sensor_type;location;lat;lon;timestamp;pressure;altitude;pressure_sealevel;temperature;humidity
58757;BME280;44527;47.460;19.016;2023-01-29T00:01:52;100992.66;;;1.80;83.51
58757;BME280;44527;47.460;19.016;2023-01-29T00:04:55;100980.72;;;1.75;82.88
58757;BME280;44527;47.460;19.016;2023-01-29T00:08:00;100985.28;;;1.60;83.45
58757;BME280;44527;47.460;19.016;2023-01-29T00:11:04;100982.87;;;1.51;83.58
58757;BME280;44527;47.460;19.016;2023-01-29T00:14:07;100992.44;;;1.46;83.54
58757;BME280;44527;47.460;19.016;2023-01-29T00:17:09;100991.62;;;1.44;84.03
58757;BME280;44527;47.460;19.016;2023-01-29T00:20:12;101001.97;;;1.44;84.09
58757;BME280;44527;47.460;19.016;2023-01-29T00:23:15;101008.84;;;1.44;84.32
58757;BME280;44527;47.460;19.016;2023-01-29T00:26:18;101008.06;;;1.40;83.89
58757;BME280;44527;47.460;19.016;2023-01-29T00:29:21;101001.72;;;1.07;84.94
58757;BME280;44527;47.460;19.016;2023-01-29T00:32:26;101005.94;;;1.14;85.08
58757;BME280;44527;47.460;19.016;2023-01-29T00:35:29;101005.94;;;1.12;85.21
58757;BME280;44527;47.460;19.016;2023-01-29T00:38:32;101012.16;;;1.01;86.16
58757;BME280;44527;47.460;19.016;2023-01-29T00:41:37;101017.22;;;1.08;85.81
58757;BME280;44527;47.460;19.016;2023-01-29T00:45:01;101016.41;;;1.06;85.75
58757;BME280;44527;47.460;19.016;2023-01-29T00:48:05;101024.03;;;1.14;85.77
58757;BME280;44527;47.460;19.016;2023-01-29T00:51:08;101016.63;;;0.91;87.21
58757;BME280;44527;47.460;19.016;2023-01-29T00:54:10;101017.34;;;1.01;86.25
58757;BME280;44527;47.460;19.016;2023-01-29T00:57:13;101018.94;;;1.09;85.92
58757;BME280;44527;47.460;19.016;2023-01-29T01:00:17;101023.09;;;1.18;85.41
58757;BME280;44527;47.460;19.016;2023-01-29T01:03:20;101020.56;;;1.15;85.72
58757;BME280;44527;47.460;19.016;2023-01-29T01:06:22;101021.78;;;1.45;84.43
58757;BME280;44527;47.460;19.016;2023-01-29T01:09:25;101023.19;;;1.63;83.21
58757;BME280;44527;47.460;19.016;2023-01-29T01:12:48;101025.84;;;1.58;82.69
58757;BME280;44527;47.460;19.016;2023-01-29T01:15:52;101019.97;;;1.50;82.66
58757;BME280;44527;47.460;19.016;2023-01-29T01:18:57;101022.09;;;1.25;83.98
58757;BME280;44527;47.460;19.016;2023-01-29T01:21:59;101011.56;;;1.37;82.90
58757;BME280;44527;47.460;19.016;2023-01-29T01:25:02;101019.00;;;1.56;81.44
58757;BME280;44527;47.460;19.016;2023-01-29T01:28:04;101019.16;;;1.48;82.04
58757;BME280;44527;47.460;19.016;2023-01-29T01:31:09;101023.00;;;1.26;83.12
58757;BME280;44527;47.460;19.016;2023-01-29T01:34:11;101015.59;;;1.03;83.74
58757;BME280;44527;47.460;19.016;2023-01-29T01:37:14;101017.53;;;0.88;84.58
58757;BME280;44527;47.460;19.016;2023-01-29T01:40:20;101023.53;;;0.90;84.77
58757;BME280;44527;47.460;19.016;2023-01-29T01:43:24;101032.84;;;1.02;84.20
58757;BME280;44527;47.460;19.016;2023-01-29T01:46:35;101037.06;;;1.08;83.32
58757;BME280;44527;47.460;19.016;2023-01-29T01:49:38;101032.66;;;1.13;83.51
58757;BME280;44527;47.460;19.016;2023-01-29T01:52:48;101037.97;;;1.05;84.05
58757;BME280;44527;47.460;19.016;2023-01-29T01:55:57;101043.97;;;1.06;83.60
58757;BME280;44527;47.460;19.016;2023-01-29T01:59:01;101041.44;;;1.03;84.15
58757;BME280;44527;47.460;19.016;2023-01-29T02:02:05;101051.13;;;0.90;84.25
58757;BME280;44527;47.460;19.016;2023-01-29T02:05:31;101039.94;;;0.89;84.55
58757;BME280;44527;47.460;19.016;2023-01-29T02:09:02;101047.03;;;0.77;84.76
58757;BME280;44527;47.460;19.016;2023-01-29T02:12:27;101048.06;;;0.63;84.85
58757;BME280;44527;47.460;19.016;2023-01-29T02:15:32;101040.41;;;0.56;86.64
58757;BME280;44527;47.460;19.016;2023-01-29T02:18:36;101056.03;;;0.45;86.70
58757;BME280;44527;47.460;19.016;2023-01-29T02:28:53;101051.97;;;0.29;86.37
58757;BME280;44527;47.460;19.016;2023-01-29T02:35:18;101063.53;;;-0.06;87.48
58757;BME280;44527;47.460;19.016;2023-01-29T02:38:45;101070.41;;;-0.05;87.64
58757;BME280;44527;47.460;19.016;2023-01-29T02:45:13;101057.75;;;-0.27;89.01
58757;BME280;44527;47.460;19.016;2023-01-29T02:48:19;101056.56;;;0.02;88.85
58757;BME280;44527;47.460;19.016;2023-01-29T02:51:31;101062.50;;;0.10;88.44
58757;BME280;44527;47.460;19.016;2023-01-29T02:57:59;101071.91;;;0.16;88.12
58757;BME280;44527;47.460;19.016;2023-01-29T03:01:15;101072.75;;;0.16;88.01
58757;BME280;44527;47.460;19.016;2023-01-29T03:04:28;101078.66;;;0.28;87.01
58757;BME280;44527;47.460;19.016;2023-01-29T03:07:36;101086.69;;;0.03;88.79
58757;BME280;44527;47.460;19.016;2023-01-29T03:10:53;101094.31;;;0.11;88.58
58757;BME280;44527;47.460;19.016;2023-01-29T03:14:06;101084.00;;;0.11;88.90
58757;BME280;44527;47.460;19.016;2023-01-29T03:17:10;101093.47;;;0.10;89.09
58757;BME280;44527;47.460;19.016;2023-01-29T03:20:16;101083.12;;;0.13;88.69
58757;BME280;44527;47.460;19.016;2023-01-29T03:23:24;101082.97;;;0.26;88.30
58757;BME280;44527;47.460;19.016;2023-01-29T03:26:28;101090.06;;;0.08;88.20
58757;BME280;44527;47.460;19.016;2023-01-29T03:29:52;101090.94;;;0.06;88.62
58757;BME280;44527;47.460;19.016;2023-01-29T03:33:18;101098.47;;;0.24;88.58
58757;BME280;44527;47.460;19.016;2023-01-29T03:39:39;101096.81;;;0.20;88.75
58757;BME280;44527;47.460;19.016;2023-01-29T03:43:13;101105.13;;;0.45;87.92
58757;BME280;44527;47.460;19.016;2023-01-29T03:46:35;101095.56;;;0.53;86.08
58757;BME280;44527;47.460;19.016;2023-01-29T03:53:07;101100.06;;;0.36;87.25
58757;BME280;44527;47.460;19.016;2023-01-29T03:56:24;101107.91;;;0.27;87.59
58757;BME280;44527;47.460;19.016;2023-01-29T04:03:31;101101.69;;;0.46;87.23
58757;BME280;44527;47.460;19.016;2023-01-29T04:06:40;101104.13;;;0.58;87.18
58757;BME280;44527;47.460;19.016;2023-01-29T04:09:48;101101.28;;;0.75;85.94
58757;BME280;44527;47.460;19.016;2023-01-29T04:13:04;101096.25;;;0.66;86.59
58757;BME280;44527;47.460;19.016;2023-01-29T04:16:13;101100.94;;;1.00;85.59
58757;BME280;44527;47.460;19.016;2023-01-29T04:19:19;101102.72;;;0.96;85.04
58757;BME280;44527;47.460;19.016;2023-01-29T04:22:34;101102.91;;;0.82;85.83
58757;BME280;44527;47.460;19.016;2023-01-29T04:25:44;101103.56;;;0.98;85.20
58757;BME280;44527;47.460;19.016;2023-01-29T04:35:56;101088.59;;;1.19;84.91
58757;BME280;44527;47.460;19.016;2023-01-29T04:39:45;101094.47;;;1.28;84.49
58757;BME280;44527;47.460;19.016;2023-01-29T04:43:04;101087.69;;;1.23;84.50
58757;BME280;44527;47.460;19.016;2023-01-29T04:46:13;101094.56;;;1.24;85.17
58757;BME280;44527;47.460;19.016;2023-01-29T04:49:24;101104.81;;;1.30;84.86
58757;BME280;44527;47.460;19.016;2023-01-29T04:52:49;101106.34;;;1.40;83.64
58757;BME280;44527;47.460;19.016;2023-01-29T04:56:07;101101.37;;;1.29;84.03
58757;BME280;44527;47.460;19.016;2023-01-29T04:59:18;101101.87;;;1.51;82.60
58757;BME280;44527;47.460;19.016;2023-01-29T05:02:23;101104.22;;;1.65;81.83
58757;BME280;44527;47.460;19.016;2023-01-29T05:05:30;101105.09;;;1.66;81.87
58757;BME280;44527;47.460;19.016;2023-01-29T05:08:33;101101.63;;;1.67;81.38
58757;BME280;44527;47.460;19.016;2023-01-29T05:11:39;101097.28;;;1.69;81.10
58757;BME280;44527;47.460;19.016;2023-01-29T05:14:44;101099.75;;;1.75;80.38
58757;BME280;44527;47.460;19.016;2023-01-29T05:17:49;101112.66;;;1.78;79.70
58757;BME280;44527;47.460;19.016;2023-01-29T05:20:51;101110.97;;;1.75;79.63
58757;BME280;44527;47.460;19.016;2023-01-29T05:27:18;101104.00;;;1.79;79.05
58757;BME280;44527;47.460;19.016;2023-01-29T05:30:42;101101.56;;;1.70;79.24
58757;BME280;44527;47.460;19.016;2023-01-29T05:33:45;101096.44;;;1.67;79.63
58757;BME280;44527;47.460;19.016;2023-01-29T05:36:48;101091.28;;;1.67;79.29
58757;BME280;44527;47.460;19.016;2023-01-29T05:39:50;101101.47;;;1.76;78.57
58757;BME280;44527;47.460;19.016;2023-01-29T05:42:55;101099.97;;;1.61;78.62
58757;BME280;44527;47.460;19.016;2023-01-29T05:46:00;101093.38;;;1.45;79.19
58757;BME280;44527;47.460;19.016;2023-01-29T05:49:05;101095.84;;;1.51;78.53
58757;BME280;44527;47.460;19.016;2023-01-29T05:52:09;101096.94;;;1.36;78.50
58757;BME280;44527;47.460;19.016;2023-01-29T05:55:13;101097.78;;;1.38;78.38
58757;BME280;44527;47.460;19.016;2023-01-29T05:58:15;101104.66;;;1.39;78.02
58757;BME280;44527;47.460;19.016;2023-01-29T06:01:20;101108.63;;;1.60;77.23
58757;BME280;44527;47.460;19.016;2023-01-29T06:04:23;101105.31;;;1.53;76.96
58757;BME280;44527;47.460;19.016;2023-01-29T06:07:25;101107.63;;;1.67;76.29
58757;BME280;44527;47.460;19.016;2023-01-29T06:10:28;101111.81;;;1.76;74.68
58757;BME280;44527;47.460;19.016;2023-01-29T06:13:30;101118.84;;;1.68;74.82
58757;BME280;44527;47.460;19.016;2023-01-29T06:16:33;101115.47;;;1.64;75.16
58757;BME280;44527;47.460;19.016;2023-01-29T06:19:35;101124.06;;;1.66;75.14
58757;BME280;44527;47.460;19.016;2023-01-29T06:22:38;101132.34;;;1.85;74.65
58757;BME280;44527;47.460;19.016;2023-01-29T06:25:40;101128.94;;;1.83;75.29
58757;BME280;44527;47.460;19.016;2023-01-29T06:28:42;101138.50;;;1.79;74.78
58757;BME280;44527;47.460;19.016;2023-01-29T06:31:49;101137.38;;;1.93;75.40
58757;BME280;44527;47.460;19.016;2023-01-29T06:34:52;101148.41;;;2.04;74.83
58757;BME280;44527;47.460;19.016;2023-01-29T06:37:56;101153.38;;;1.67;74.81
58757;BME280;44527;47.460;19.016;2023-01-29T06:41:07;101171.44;;;1.70;76.31
58757;BME280;44527;47.460;19.016;2023-01-29T06:44:10;101161.72;;;1.82;75.94
58757;BME280;44527;47.460;19.016;2023-01-29T06:47:12;101154.59;;;1.95;75.70
58757;BME280;44527;47.460;19.016;2023-01-29T06:50:15;101175.16;;;2.04;75.29
58757;BME280;44527;47.460;19.016;2023-01-29T06:53:20;101164.06;;;1.98;75.36
58757;BME280;44527;47.460;19.016;2023-01-29T06:56:23;101163.22;;;1.96;75.90
58757;BME280;44527;47.460;19.016;2023-01-29T06:59:25;101169.13;;;2.04;74.34
58757;BME280;44527;47.460;19.016;2023-01-29T07:02:28;101175.03;;;2.11;74.59
58757;BME280;44527;47.460;19.016;2023-01-29T07:05:32;101168.34;;;1.99;74.32
58757;BME280;44527;47.460;19.016;2023-01-29T07:08:38;101172.09;;;1.82;75.36
58757;BME280;44527;47.460;19.016;2023-01-29T07:11:41;101167.12;;;1.70;75.95
58757;BME280;44527;47.460;19.016;2023-01-29T07:14:43;101173.09;;;1.74;75.75
58757;BME280;44527;47.460;19.016;2023-01-29T07:18:01;101168.75;;;1.76;76.97
58757;BME280;44527;47.460;19.016;2023-01-29T07:21:08;101173.78;;;1.85;75.61
58757;BME280;44527;47.460;19.016;2023-01-29T07:24:11;101169.41;;;1.89;75.86
58757;BME280;44527;47.460;19.016;2023-01-29T07:27:13;101157.12;;;1.98;74.51
58757;BME280;44527;47.460;19.016;2023-01-29T07:30:16;101150.53;;;1.82;75.27
58757;BME280;44527;47.460;19.016;2023-01-29T07:33:19;101153.16;;;1.79;76.11
58757;BME280;44527;47.460;19.016;2023-01-29T07:36:21;101152.41;;;2.20;74.70
58757;BME280;44527;47.460;19.016;2023-01-29T07:39:25;101150.22;;;2.00;74.88
58757;BME280;44527;47.460;19.016;2023-01-29T07:42:27;101143.22;;;2.04;73.90
58757;BME280;44527;47.460;19.016;2023-01-29T07:45:30;101152.81;;;1.99;73.65
58757;BME280;44527;47.460;19.016;2023-01-29T07:48:35;101147.50;;;2.06;73.30
58757;BME280;44527;47.460;19.016;2023-01-29T07:51:37;101145.03;;;2.00;73.96
58757;BME280;44527;47.460;19.016;2023-01-29T07:54:39;101140.81;;;1.95;73.76
58757;BME280;44527;47.460;19.016;2023-01-29T07:57:43;101138.16;;;2.44;72.24
58757;BME280;44527;47.460;19.016;2023-01-29T08:00:45;101152.84;;;2.44;72.53
58757;BME280;44527;47.460;19.016;2023-01-29T08:03:48;101157.25;;;2.40;72.05
58757;BME280;44527;47.460;19.016;2023-01-29T08:06:52;101152.03;;;2.84;69.83
58757;BME280;44527;47.460;19.016;2023-01-29T08:09:54;101143.47;;;2.82;69.58
58757;BME280;44527;47.460;19.016;2023-01-29T08:13:01;101150.66;;;2.67;69.72
58757;BME280;44527;47.460;19.016;2023-01-29T08:16:04;101156.94;;;2.54;69.31
58757;BME280;44527;47.460;19.016;2023-01-29T08:19:08;101157.97;;;2.47;70.48
58757;BME280;44527;47.460;19.016;2023-01-29T08:22:10;101148.72;;;2.77;70.38
58757;BME280;44527;47.460;19.016;2023-01-29T08:25:13;101150.34;;;2.81;70.92
58757;BME280;44527;47.460;19.016;2023-01-29T08:28:16;101152.84;;;2.44;71.90
58757;BME280;44527;47.460;19.016;2023-01-29T08:31:19;101161.63;;;2.80;71.52
58757;BME280;44527;47.460;19.016;2023-01-29T08:34:27;101164.59;;;2.62;72.60
58757;BME280;44527;47.460;19.016;2023-01-29T08:37:30;101169.47;;;2.77;71.81
58757;BME280;44527;47.460;19.016;2023-01-29T08:40:33;101164.56;;;2.63;70.49
58757;BME280;44527;47.460;19.016;2023-01-29T08:43:37;101170.62;;;2.62;69.10
58757;BME280;44527;47.460;19.016;2023-01-29T08:46:40;101179.16;;;2.67;69.91
58757;BME280;44527;47.460;19.016;2023-01-29T08:49:42;101190.41;;;3.08;67.58
58757;BME280;44527;47.460;19.016;2023-01-29T08:52:48;101187.03;;;3.06;67.95
58757;BME280;44527;47.460;19.016;2023-01-29T08:55:51;101190.97;;;2.82;68.53
58757;BME280;44527;47.460;19.016;2023-01-29T08:58:54;101197.72;;;2.89;67.53
58757;BME280;44527;47.460;19.016;2023-01-29T09:01:59;101206.34;;;2.91;66.90
58757;BME280;44527;47.460;19.016;2023-01-29T09:05:01;101206.47;;;2.85;67.77
58757;BME280;44527;47.460;19.016;2023-01-29T09:08:04;101206.47;;;2.84;66.57
58757;BME280;44527;47.460;19.016;2023-01-29T09:11:07;101206.91;;;2.62;67.28
58757;BME280;44527;47.460;19.016;2023-01-29T09:14:11;101214.72;;;2.61;67.94
58757;BME280;44527;47.460;19.016;2023-01-29T09:17:26;101214.13;;;2.46;67.02
58757;BME280;44527;47.460;19.016;2023-01-29T09:20:28;101210.75;;;2.43;67.49
58757;BME280;44527;47.460;19.016;2023-01-29T09:23:31;101217.44;;;2.55;67.29
58757;BME280;44527;47.460;19.016;2023-01-29T09:26:33;101209.78;;;2.47;67.95
58757;BME280;44527;47.460;19.016;2023-01-29T09:29:36;101216.78;;;2.42;67.79
58757;BME280;44527;47.460;19.016;2023-01-29T09:32:38;101214.09;;;2.48;67.38
58757;BME280;44527;47.460;19.016;2023-01-29T09:35:56;101210.56;;;2.52;66.76
58757;BME280;44527;47.460;19.016;2023-01-29T09:38:58;101220.34;;;2.83;66.23
58757;BME280;44527;47.460;19.016;2023-01-29T09:42:20;101230.22;;;2.62;65.73
58757;BME280;44527;47.460;19.016;2023-01-29T09:45:25;101233.03;;;2.51;65.86
58757;BME280;44527;47.460;19.016;2023-01-29T09:48:32;101226.75;;;2.65;65.66
58757;BME280;44527;47.460;19.016;2023-01-29T09:52:06;101227.28;;;2.81;64.69
58757;BME280;44527;47.460;19.016;2023-01-29T09:55:21;101232.34;;;2.88;64.63
58757;BME280;44527;47.460;19.016;2023-01-29T09:58:36;101229.87;;;2.82;64.29
58757;BME280;44527;47.460;19.016;2023-01-29T10:01:49;101230.41;;;2.98;64.96
58757;BME280;44527;47.460;19.016;2023-01-29T10:05:24;101235.00;;;2.85;64.05
58757;BME280;44527;47.460;19.016;2023-01-29T10:11:50;101230.00;;;2.74;66.15
58757;BME280;44527;47.460;19.016;2023-01-29T10:15:12;101233.00;;;2.98;64.59
58757;BME280;44527;47.460;19.016;2023-01-29T10:18:50;101233.72;;;3.06;63.65
58757;BME280;44527;47.460;19.016;2023-01-29T10:22:14;101237.41;;;2.94;65.22
58757;BME280;44527;47.460;19.016;2023-01-29T10:25:27;101232.53;;;2.79;64.16
58757;BME280;44527;47.460;19.016;2023-01-29T10:28:40;101226.97;;;2.97;63.68
58757;BME280;44527;47.460;19.016;2023-01-29T10:31:57;101224.31;;;3.01;63.03
58757;BME280;44527;47.460;19.016;2023-01-29T10:35:27;101231.97;;;3.05;62.29
58757;BME280;44527;47.460;19.016;2023-01-29T10:38:45;101233.72;;;2.60;63.17
58757;BME280;44527;47.460;19.016;2023-01-29T10:42:30;101230.50;;;2.48;62.96
58757;BME280;44527;47.460;19.016;2023-01-29T10:45:59;101235.34;;;2.67;63.22
58757;BME280;44527;47.460;19.016;2023-01-29T10:52:34;101225.97;;;2.60;63.03
58757;BME280;44527;47.460;19.016;2023-01-29T10:58:58;101214.28;;;2.37;63.09
58757;BME280;44527;47.460;19.016;2023-01-29T11:02:14;101214.03;;;2.51;63.76
58757;BME280;44527;47.460;19.016;2023-01-29T11:05:25;101202.91;;;2.46;63.12
58757;BME280;44527;47.460;19.016;2023-01-29T11:12:04;101198.31;;;2.60;61.96
58757;BME280;44527;47.460;19.016;2023-01-29T11:18:19;101184.03;;;2.39;61.74
58757;BME280;44527;47.460;19.016;2023-01-29T11:21:23;101188.16;;;2.49;60.89
58757;BME280;44527;47.460;19.016;2023-01-29T11:24:27;101171.09;;;2.39;60.86
58757;BME280;44527;47.460;19.016;2023-01-29T11:27:32;101156.88;;;2.14;60.64
58757;BME280;44527;47.460;19.016;2023-01-29T11:30:40;101161.31;;;2.07;61.49
58757;BME280;44527;47.460;19.016;2023-01-29T11:33:44;101154.50;;;2.01;61.59
58757;BME280;44527;47.460;19.016;2023-01-29T11:36:59;101154.09;;;2.23;61.37
58757;BME280;44527;47.460;19.016;2023-01-29T11:43:30;101138.22;;;1.96;59.80
58757;BME280;44527;47.460;19.016;2023-01-29T11:46:38;101142.13;;;2.17;60.37
58757;BME280;44527;47.460;19.016;2023-01-29T11:49:49;101134.63;;;2.48;59.64
58757;BME280;44527;47.460;19.016;2023-01-29T11:52:52;101121.63;;;2.51;59.25
58757;BME280;44527;47.460;19.016;2023-01-29T11:55:55;101121.50;;;2.58;59.39
58757;BME280;44527;47.460;19.016;2023-01-29T11:58:59;101131.91;;;2.55;59.72
58757;BME280;44527;47.460;19.016;2023-01-29T12:02:25;101113.94;;;2.87;59.82
58757;BME280;44527;47.460;19.016;2023-01-29T12:05:29;101119.09;;;3.28;57.14
58757;BME280;44527;47.460;19.016;2023-01-29T12:08:38;101110.84;;;3.09;56.05
58757;BME280;44527;47.460;19.016;2023-01-29T12:11:41;101117.63;;;3.52;56.00
58757;BME280;44527;47.460;19.016;2023-01-29T12:14:44;101126.59;;;3.38;55.50
58757;BME280;44527;47.460;19.016;2023-01-29T12:21:42;101112.44;;;3.52;54.59
58757;BME280;44527;47.460;19.016;2023-01-29T12:34:51;101098.56;;;2.78;55.44
58757;BME280;44527;47.460;19.016;2023-01-29T12:41:27;101106.19;;;1.99;57.92
58757;BME280;44527;47.460;19.016;2023-01-29T12:44:35;101104.34;;;2.07;57.41
58757;BME280;44527;47.460;19.016;2023-01-29T12:47:47;101116.38;;;2.10;57.33
58757;BME280;44527;47.460;19.016;2023-01-29T12:50:51;101104.03;;;1.76;57.70
58757;BME280;44527;47.460;19.016;2023-01-29T12:54:18;101115.31;;;1.73;57.75
58757;BME280;44527;47.460;19.016;2023-01-29T12:57:46;101098.97;;;1.70;58.36
58757;BME280;44527;47.460;19.016;2023-01-29T13:00:53;101094.37;;;1.87;58.63
58757;BME280;44527;47.460;19.016;2023-01-29T13:04:12;101099.13;;;1.60;58.23
58757;BME280;44527;47.460;19.016;2023-01-29T13:07:27;101089.00;;;1.47;59.46
58757;BME280;44527;47.460;19.016;2023-01-29T13:10:37;101085.34;;;1.58;58.40
58757;BME280;44527;47.460;19.016;2023-01-29T13:20:27;101060.09;;;1.23;60.64
58757;BME280;44527;47.460;19.016;2023-01-29T13:23:44;101066.22;;;1.18;61.01
58757;BME280;44527;47.460;19.016;2023-01-29T13:26:48;101061.78;;;1.24;61.67
58757;BME280;44527;47.460;19.016;2023-01-29T13:29:52;101052.38;;;1.19;60.35
58757;BME280;44527;47.460;19.016;2023-01-29T13:32:57;101044.72;;;1.12;60.85
58757;BME280;44527;47.460;19.016;2023-01-29T13:36:18;101042.94;;;1.16;60.61
58757;BME280;44527;47.460;19.016;2023-01-29T13:39:35;101043.03;;;1.11;60.63
58757;BME280;44527;47.460;19.016;2023-01-29T13:42:48;101043.72;;;1.23;61.33
58757;BME280;44527;47.460;19.016;2023-01-29T13:45:51;101049.72;;;1.25;60.18
58757;BME280;44527;47.460;19.016;2023-01-29T13:48:55;101052.19;;;1.32;59.98
58757;BME280;44527;47.460;19.016;2023-01-29T13:52:29;101053.03;;;1.33;59.56
58757;BME280;44527;47.460;19.016;2023-01-29T13:55:38;101056.09;;;1.56;59.45
58757;BME280;44527;47.460;19.016;2023-01-29T13:59:02;101058.41;;;1.70;58.90
58757;BME280;44527;47.460;19.016;2023-01-29T14:11:36;101034.50;;;1.57;60.01
58757;BME280;44527;47.460;19.016;2023-01-29T14:21:06;101051.81;;;1.54;60.44
58757;BME280;44527;47.460;19.016;2023-01-29T14:24:23;101053.56;;;1.52;59.58
58757;BME280;44527;47.460;19.016;2023-01-29T14:27:30;101045.22;;;1.36;60.85
58757;BME280;44527;47.460;19.016;2023-01-29T14:30:34;101052.88;;;1.42;60.53
58757;BME280;44527;47.460;19.016;2023-01-29T14:33:39;101058.62;;;1.59;60.96
58757;BME280;44527;47.460;19.016;2023-01-29T14:36:46;101055.50;;;1.39;60.36
58757;BME280;44527;47.460;19.016;2023-01-29T14:39:50;101055.56;;;1.34;60.65
58757;BME280;44527;47.460;19.016;2023-01-29T14:49:59;101052.00;;;1.43;61.57
58757;BME280;44527;47.460;19.016;2023-01-29T14:56:39;101044.47;;;1.29;61.35
58757;BME280;44527;47.460;19.016;2023-01-29T15:00:05;101054.94;;;1.22;61.74
58757;BME280;44527;47.460;19.016;2023-01-29T15:03:26;101055.97;;;1.10;61.74
58757;BME280;44527;47.460;19.016;2023-01-29T15:06:49;101060.87;;;1.27;61.65
58757;BME280;44527;47.460;19.016;2023-01-29T15:10:03;101050.56;;;1.25;61.54
58757;BME280;44527;47.460;19.016;2023-01-29T15:13:31;101058.25;;;1.28;61.24
58757;BME280;44527;47.460;19.016;2023-01-29T15:17:03;101052.56;;;1.08;60.82
58757;BME280;44527;47.460;19.016;2023-01-29T15:20:32;101047.75;;;0.85;61.54
58757;BME280;44527;47.460;19.016;2023-01-29T15:23:35;101050.37;;;0.82;61.21
58757;BME280;44527;47.460;19.016;2023-01-29T15:26:37;101054.84;;;0.71;63.00
58757;BME280;44527;47.460;19.016;2023-01-29T15:29:40;101046.97;;;0.78;61.81
58757;BME280;44527;47.460;19.016;2023-01-29T15:32:45;101045.41;;;0.68;61.87
58757;BME280;44527;47.460;19.016;2023-01-29T15:35:57;101031.66;;;0.67;62.80
58757;BME280;44527;47.460;19.016;2023-01-29T15:42:15;101051.53;;;0.61;62.69
58757;BME280;44527;47.460;19.016;2023-01-29T15:45:26;101050.72;;;0.57;63.02
58757;BME280;44527;47.460;19.016;2023-01-29T15:48:34;101052.69;;;0.40;63.58
58757;BME280;44527;47.460;19.016;2023-01-29T15:51:37;101057.09;;;0.32;64.16
58757;BME280;44527;47.460;19.016;2023-01-29T15:54:40;101055.47;;;0.23;64.91
58757;BME280;44527;47.460;19.016;2023-01-29T15:57:44;101060.69;;;0.17;63.72
58757;BME280;44527;47.460;19.016;2023-01-29T16:00:54;101069.25;;;0.20;63.89
58757;BME280;44527;47.460;19.016;2023-01-29T16:03:59;101066.03;;;0.03;63.45
58757;BME280;44527;47.460;19.016;2023-01-29T16:07:07;101069.66;;;-0.15;64.40
58757;BME280;44527;47.460;19.016;2023-01-29T16:10:19;101070.44;;;-0.10;64.67
58757;BME280;44527;47.460;19.016;2023-01-29T16:13:24;101071.41;;;-0.18;64.53
58757;BME280;44527;47.460;19.016;2023-01-29T16:16:27;101074.81;;;-0.16;65.79
58757;BME280;44527;47.460;19.016;2023-01-29T16:19:30;101073.09;;;-0.16;65.42
58757;BME280;44527;47.460;19.016;2023-01-29T16:22:35;101066.91;;;0.01;65.21
58757;BME280;44527;47.460;19.016;2023-01-29T16:25:38;101081.59;;;-0.06;66.02
58757;BME280;44527;47.460;19.016;2023-01-29T16:28:41;101069.75;;;-0.24;65.15
58757;BME280;44527;47.460;19.016;2023-01-29T16:31:46;101089.75;;;-0.52;66.78
58757;BME280;44527;47.460;19.016;2023-01-29T16:34:55;101087.97;;;-0.39;66.56
58757;BME280;44527;47.460;19.016;2023-01-29T16:38:00;101093.88;;;-0.30;65.47
58757;BME280;44527;47.460;19.016;2023-01-29T16:44:34;101091.16;;;-0.14;65.72
58757;BME280;44527;47.460;19.016;2023-01-29T16:47:39;101093.03;;;-0.32;66.21
58757;BME280;44527;47.460;19.016;2023-01-29T16:50:44;101100.75;;;-0.27;66.95
58757;BME280;44527;47.460;19.016;2023-01-29T16:53:58;101106.78;;;-0.30;65.89
58757;BME280;44527;47.460;19.016;2023-01-29T16:57:04;101113.72;;;-0.38;65.86
58757;BME280;44527;47.460;19.016;2023-01-29T17:00:18;101099.22;;;-0.48;66.13
58757;BME280;44527;47.460;19.016;2023-01-29T17:03:24;101101.69;;;-0.40;66.19
58757;BME280;44527;47.460;19.016;2023-01-29T17:06:30;101103.38;;;-0.35;66.19
58757;BME280;44527;47.460;19.016;2023-01-29T17:09:35;101102.56;;;-0.38;66.89
58757;BME280;44527;47.460;19.016;2023-01-29T17:12:38;101102.53;;;-0.37;67.29
58757;BME280;44527;47.460;19.016;2023-01-29T17:18:44;101099.84;;;-0.25;67.09
58757;BME280;44527;47.460;19.016;2023-01-29T17:21:46;101097.25;;;-0.25;66.78
58757;BME280;44527;47.460;19.016;2023-01-29T17:24:49;101095.88;;;-0.61;68.00
58757;BME280;44527;47.460;19.016;2023-01-29T17:27:53;101094.09;;;-0.54;66.94
58757;BME280;44527;47.460;19.016;2023-01-29T17:30:56;101097.44;;;-0.46;66.24
58757;BME280;44527;47.460;19.016;2023-01-29T17:34:10;101097.44;;;-0.44;66.07
58757;BME280;44527;47.460;19.016;2023-01-29T17:37:15;101086.34;;;-0.51;66.41
58757;BME280;44527;47.460;19.016;2023-01-29T17:40:54;101089.75;;;-0.49;65.80
58757;BME280;44527;47.460;19.016;2023-01-29T17:43:56;101080.53;;;-0.76;65.91
58757;BME280;44527;47.460;19.016;2023-01-29T17:46:59;101079.44;;;-0.52;66.16
58757;BME280;44527;47.460;19.016;2023-01-29T17:50:04;101081.28;;;-0.63;66.31
58757;BME280;44527;47.460;19.016;2023-01-29T17:53:08;101076.12;;;-0.65;65.93
58757;BME280;44527;47.460;19.016;2023-01-29T17:56:17;101077.81;;;-0.59;66.24
58757;BME280;44527;47.460;19.016;2023-01-29T17:59:24;101065.91;;;-0.76;66.33
58757;BME280;44527;47.460;19.016;2023-01-29T18:02:28;101060.13;;;-1.07;67.58
58757;BME280;44527;47.460;19.016;2023-01-29T18:05:31;101055.53;;;-0.68;67.01
58757;BME280;44527;47.460;19.016;2023-01-29T18:08:37;101054.69;;;-0.67;66.24
58757;BME280;44527;47.460;19.016;2023-01-29T18:11:41;101053.94;;;-0.86;67.33
58757;BME280;44527;47.460;19.016;2023-01-29T18:14:43;101047.84;;;-0.74;67.20
58757;BME280;44527;47.460;19.016;2023-01-29T18:17:46;101049.69;;;-0.85;67.96
58757;BME280;44527;47.460;19.016;2023-01-29T18:20:49;101053.06;;;-0.83;67.78